sensor_id;sensor_type;location;lat;lon;timestamp;P1;durP1;ratioP1;P2;durP2;ratioP2
21657;SDS011;10990;48.174;9.782;2022-12-29T00:00:06;3.43;;;1.40;;
21657;SDS011;10990;48.174;9.782;2022-12-29T00:02:40;2.20;;;1.50;;
21657;SDS011;10990;48.174;9.782;2022-12-29T00:05:09;2.33;;;1.60;;
21657;SDS011;10990;48.174;9.782;2022-12-29T00:07:36;2.87;;;1.47;;
21657;SDS011;10990;48.174;9.782;2022-12-29T00:10:03;1.30;;;1.20;;
21657;SDS011;10990;48.174;9.782;2022-12-29T00:12:30;1.80;;;1.40;;
21657;SDS011;10990;48.174;9.782;2022-12-29T00:15:17;2.03;;;1.50;;
21657;SDS011;10990;48.174;9.782;2022-12-29T00:18:01;1.77;;;1.40;;
21657;SDS011;10990;48.174;9.782;2022-12-29T00:20:30;2.10;;;1.33;;
21657;SDS011;10990;48.174;9.782;2022-12-29T00:23:16;2.27;;;1.53;;
21657;SDS011;10990;48.174;9.782;2022-12-29T00:26:02;2.07;;;1.30;;
21657;SDS011;10990;48.174;9.782;2022-12-29T00:28:47;1.70;;;1.30;;
21657;SDS011;10990;48.174;9.782;2022-12-29T00:31:33;2.20;;;1.27;;
21657;SDS011;10990;48.174;9.782;2022-12-29T00:34:17;1.90;;;1.40;;
21657;SDS011;10990;48.174;9.782;2022-12-29T00:37:03;1.83;;;1.40;;
21657;SDS011;10990;48.174;9.782;2022-12-29T00:39:29;1.90;;;1.30;;
21657;SDS011;10990;48.174;9.782;2022-12-29T00:42:14;2.87;;;1.40;;
21657;SDS011;10990;48.174;9.782;2022-12-29T00:45:03;3.03;;;1.50;;
21657;SDS011;10990;48.174;9.782;2022-12-29T00:47:30;1.90;;;1.37;;
21657;SDS011;10990;48.174;9.782;2022-12-29T00:49:56;2.53;;;1.60;;
21657;SDS011;10990;48.174;9.782;2022-12-29T00:52:23;1.47;;;1.30;;
21657;SDS011;10990;48.174;9.782;2022-12-29T00:54:50;2.80;;;1.60;;
21657;SDS011;10990;48.174;9.782;2022-12-29T00:57:17;2.27;;;1.47;;
21657;SDS011;10990;48.174;9.782;2022-12-29T00:59:44;2.17;;;1.37;;
21657;SDS011;10990;48.174;9.782;2022-12-29T01:02:11;1.87;;;1.40;;
21657;SDS011;10990;48.174;9.782;2022-12-29T01:04:37;1.60;;;1.30;;
21657;SDS011;10990;48.174;9.782;2022-12-29T01:07:04;3.17;;;1.90;;
21657;SDS011;10990;48.174;9.782;2022-12-29T01:09:32;2.57;;;1.50;;
21657;SDS011;10990;48.174;9.782;2022-12-29T01:12:17;3.47;;;1.40;;
21657;SDS011;10990;48.174;9.782;2022-12-29T01:15:05;2.60;;;1.53;;
21657;SDS011;10990;48.174;9.782;2022-12-29T01:17:33;2.33;;;1.40;;
21657;SDS011;10990;48.174;9.782;2022-12-29T01:19:59;2.17;;;1.67;;
21657;SDS011;10990;48.174;9.782;2022-12-29T01:22:26;2.47;;;1.80;;
21657;SDS011;10990;48.174;9.782;2022-12-29T01:24:56;2.20;;;1.37;;
21657;SDS011;10990;48.174;9.782;2022-12-29T01:27:22;2.57;;;1.70;;
21657;SDS011;10990;48.174;9.782;2022-12-29T01:29:49;2.47;;;1.37;;
21657;SDS011;10990;48.174;9.782;2022-12-29T01:32:16;2.83;;;1.47;;
21657;SDS011;10990;48.174;9.782;2022-12-29T01:34:42;2.30;;;1.33;;
21657;SDS011;10990;48.174;9.782;2022-12-29T01:37:09;3.00;;;1.50;;
21657;SDS011;10990;48.174;9.782;2022-12-29T01:39:36;2.67;;;1.50;;
21657;SDS011;10990;48.174;9.782;2022-12-29T01:42:04;1.60;;;1.20;;
21657;SDS011;10990;48.174;9.782;2022-12-29T01:44:47;2.47;;;1.30;;
21657;SDS011;10990;48.174;9.782;2022-12-29T01:47:22;2.67;;;1.63;;
21657;SDS011;10990;48.174;9.782;2022-12-29T01:49:55;2.20;;;1.40;;
21657;SDS011;10990;48.174;9.782;2022-12-29T01:52:24;2.33;;;1.50;;
21657;SDS011;10990;48.174;9.782;2022-12-29T01:54:55;2.13;;;1.43;;
21657;SDS011;10990;48.174;9.782;2022-12-29T01:57:26;2.17;;;1.33;;
21657;SDS011;10990;48.174;9.782;2022-12-29T01:59:56;1.87;;;1.30;;
21657;SDS011;10990;48.174;9.782;2022-12-29T02:02:26;2.20;;;1.40;;
21657;SDS011;10990;48.174;9.782;2022-12-29T02:04:54;4.63;;;1.40;;
21657;SDS011;10990;48.174;9.782;2022-12-29T02:07:25;2.97;;;1.30;;
21657;SDS011;10990;48.174;9.782;2022-12-29T02:09:54;2.63;;;1.50;;
21657;SDS011;10990;48.174;9.782;2022-12-29T02:12:22;3.87;;;1.30;;
21657;SDS011;10990;48.174;9.782;2022-12-29T02:14:52;2.83;;;1.47;;
21657;SDS011;10990;48.174;9.782;2022-12-29T02:17:25;1.77;;;1.40;;
21657;SDS011;10990;48.174;9.782;2022-12-29T02:20:24;2.83;;;1.23;;
21657;SDS011;10990;48.174;9.782;2022-12-29T02:23:18;2.07;;;1.20;;
21657;SDS011;10990;48.174;9.782;2022-12-29T02:26:16;1.70;;;1.07;;
21657;SDS011;10990;48.174;9.782;2022-12-29T02:29:03;3.00;;;1.40;;
21657;SDS011;10990;48.174;9.782;2022-12-29T02:31:54;1.53;;;1.13;;
21657;SDS011;10990;48.174;9.782;2022-12-29T02:34:29;1.30;;;1.10;;
21657;SDS011;10990;48.174;9.782;2022-12-29T02:37:06;2.17;;;1.20;;
21657;SDS011;10990;48.174;9.782;2022-12-29T02:39:40;1.90;;;1.33;;
21657;SDS011;10990;48.174;9.782;2022-12-29T02:42:17;3.77;;;1.13;;
21657;SDS011;10990;48.174;9.782;2022-12-29T02:44:51;1.60;;;1.10;;
21657;SDS011;10990;48.174;9.782;2022-12-29T02:47:25;1.97;;;0.97;;
21657;SDS011;10990;48.174;9.782;2022-12-29T02:49:57;2.37;;;1.33;;
21657;SDS011;10990;48.174;9.782;2022-12-29T02:52:30;1.83;;;1.10;;
21657;SDS011;10990;48.174;9.782;2022-12-29T02:55:00;1.23;;;1.10;;
21657;SDS011;10990;48.174;9.782;2022-12-29T02:57:30;1.20;;;1.03;;
21657;SDS011;10990;48.174;9.782;2022-12-29T03:00:02;0.97;;;0.90;;
21657;SDS011;10990;48.174;9.782;2022-12-29T03:02:38;2.63;;;1.20;;
21657;SDS011;10990;48.174;9.782;2022-12-29T03:08:14;3.07;;;1.07;;
21657;SDS011;10990;48.174;9.782;2022-12-29T03:10:50;2.67;;;1.20;;
21657;SDS011;10990;48.174;9.782;2022-12-29T03:13:26;1.83;;;1.30;;
21657;SDS011;10990;48.174;9.782;2022-12-29T03:16:19;2.00;;;1.10;;
21657;SDS011;10990;48.174;9.782;2022-12-29T03:18:54;2.03;;;1.20;;
21657;SDS011;10990;48.174;9.782;2022-12-29T03:21:25;2.90;;;1.20;;
21657;SDS011;10990;48.174;9.782;2022-12-29T03:24:13;1.83;;;1.10;;
21657;SDS011;10990;48.174;9.782;2022-12-29T03:26:41;1.87;;;1.07;;
21657;SDS011;10990;48.174;9.782;2022-12-29T03:29:11;1.97;;;1.20;;
21657;SDS011;10990;48.174;9.782;2022-12-29T03:31:42;2.03;;;1.27;;
21657;SDS011;10990;48.174;9.782;2022-12-29T03:34:10;2.03;;;1.30;;
21657;SDS011;10990;48.174;9.782;2022-12-29T03:36:42;2.80;;;1.33;;
21657;SDS011;10990;48.174;9.782;2022-12-29T03:39:12;5.17;;;1.20;;
21657;SDS011;10990;48.174;9.782;2022-12-29T03:41:40;2.77;;;1.20;;
21657;SDS011;10990;48.174;9.782;2022-12-29T03:44:10;1.77;;;1.33;;
21657;SDS011;10990;48.174;9.782;2022-12-29T03:46:38;2.07;;;1.27;;
21657;SDS011;10990;48.174;9.782;2022-12-29T03:49:06;2.10;;;1.10;;
21657;SDS011;10990;48.174;9.782;2022-12-29T03:51:34;1.70;;;1.30;;
21657;SDS011;10990;48.174;9.782;2022-12-29T03:54:04;1.67;;;1.20;;
21657;SDS011;10990;48.174;9.782;2022-12-29T03:56:32;1.20;;;1.10;;
21657;SDS011;10990;48.174;9.782;2022-12-29T03:58:58;2.40;;;1.20;;
21657;SDS011;10990;48.174;9.782;2022-12-29T04:01:38;1.20;;;1.10;;
21657;SDS011;10990;48.174;9.782;2022-12-29T04:04:06;1.70;;;1.20;;
21657;SDS011;10990;48.174;9.782;2022-12-29T04:06:34;2.07;;;0.90;;
21657;SDS011;10990;48.174;9.782;2022-12-29T04:09:04;1.70;;;1.20;;
21657;SDS011;10990;48.174;9.782;2022-12-29T04:11:37;1.43;;;1.10;;
21657;SDS011;10990;48.174;9.782;2022-12-29T04:14:04;2.60;;;1.20;;
21657;SDS011;10990;48.174;9.782;2022-12-29T04:16:32;1.40;;;1.17;;
21657;SDS011;10990;48.174;9.782;2022-12-29T04:19:02;1.50;;;1.37;;
21657;SDS011;10990;48.174;9.782;2022-12-29T04:21:29;2.03;;;1.20;;
21657;SDS011;10990;48.174;9.782;2022-12-29T04:23:58;1.77;;;1.30;;
21657;SDS011;10990;48.174;9.782;2022-12-29T04:26:26;2.30;;;1.13;;
21657;SDS011;10990;48.174;9.782;2022-12-29T04:29:19;2.80;;;1.30;;
21657;SDS011;10990;48.174;9.782;2022-12-29T04:32:11;2.20;;;1.20;;
21657;SDS011;10990;48.174;9.782;2022-12-29T04:34:44;1.70;;;1.20;;
21657;SDS011;10990;48.174;9.782;2022-12-29T04:37:11;2.23;;;1.30;;
21657;SDS011;10990;48.174;9.782;2022-12-29T04:39:39;2.50;;;1.20;;
21657;SDS011;10990;48.174;9.782;2022-12-29T04:42:07;1.20;;;1.00;;
21657;SDS011;10990;48.174;9.782;2022-12-29T04:44:34;2.93;;;1.37;;
21657;SDS011;10990;48.174;9.782;2022-12-29T04:47:13;2.30;;;1.30;;
21657;SDS011;10990;48.174;9.782;2022-12-29T04:49:59;2.77;;;1.23;;
21657;SDS011;10990;48.174;9.782;2022-12-29T04:53:01;1.97;;;1.27;;
21657;SDS011;10990;48.174;9.782;2022-12-29T04:55:30;1.37;;;1.00;;
21657;SDS011;10990;48.174;9.782;2022-12-29T04:57:56;2.50;;;1.40;;
21657;SDS011;10990;48.174;9.782;2022-12-29T05:00:24;1.20;;;1.10;;
21657;SDS011;10990;48.174;9.782;2022-12-29T05:02:51;1.80;;;1.40;;
21657;SDS011;10990;48.174;9.782;2022-12-29T05:05:18;2.73;;;1.40;;
21657;SDS011;10990;48.174;9.782;2022-12-29T05:07:48;1.80;;;1.30;;
21657;SDS011;10990;48.174;9.782;2022-12-29T05:10:15;2.20;;;1.20;;
21657;SDS011;10990;48.174;9.782;2022-12-29T05:12:43;2.50;;;1.30;;
21657;SDS011;10990;48.174;9.782;2022-12-29T05:15:12;2.40;;;1.70;;
21657;SDS011;10990;48.174;9.782;2022-12-29T05:17:38;3.57;;;1.60;;
21657;SDS011;10990;48.174;9.782;2022-12-29T05:20:07;1.50;;;1.20;;
21657;SDS011;10990;48.174;9.782;2022-12-29T05:22:35;1.83;;;1.10;;
21657;SDS011;10990;48.174;9.782;2022-12-29T05:25:04;1.73;;;1.20;;
21657;SDS011;10990;48.174;9.782;2022-12-29T05:27:39;3.00;;;1.40;;
21657;SDS011;10990;48.174;9.782;2022-12-29T05:30:18;1.80;;;1.33;;
21657;SDS011;10990;48.174;9.782;2022-12-29T05:32:45;1.60;;;1.20;;
21657;SDS011;10990;48.174;9.782;2022-12-29T05:35:12;1.97;;;1.30;;
21657;SDS011;10990;48.174;9.782;2022-12-29T05:37:39;1.80;;;1.40;;
21657;SDS011;10990;48.174;9.782;2022-12-29T05:40:07;2.00;;;1.40;;
21657;SDS011;10990;48.174;9.782;2022-12-29T05:42:34;1.37;;;1.20;;
21657;SDS011;10990;48.174;9.782;2022-12-29T05:45:28;2.40;;;1.40;;
21657;SDS011;10990;48.174;9.782;2022-12-29T05:48:05;2.80;;;1.30;;
21657;SDS011;10990;48.174;9.782;2022-12-29T05:50:58;2.17;;;1.23;;
21657;SDS011;10990;48.174;9.782;2022-12-29T05:53:35;2.13;;;1.30;;
21657;SDS011;10990;48.174;9.782;2022-12-29T05:56:02;1.30;;;1.20;;
21657;SDS011;10990;48.174;9.782;2022-12-29T05:58:30;1.53;;;1.20;;
21657;SDS011;10990;48.174;9.782;2022-12-29T06:01:00;2.30;;;1.30;;
21657;SDS011;10990;48.174;9.782;2022-12-29T06:03:27;2.37;;;1.30;;
21657;SDS011;10990;48.174;9.782;2022-12-29T06:05:53;2.13;;;1.43;;
21657;SDS011;10990;48.174;9.782;2022-12-29T06:08:20;2.70;;;1.40;;
21657;SDS011;10990;48.174;9.782;2022-12-29T06:10:47;2.73;;;1.30;;
21657;SDS011;10990;48.174;9.782;2022-12-29T06:13:14;1.73;;;1.33;;
21657;SDS011;10990;48.174;9.782;2022-12-29T06:15:43;2.10;;;1.40;;
21657;SDS011;10990;48.174;9.782;2022-12-29T06:18:11;3.10;;;1.40;;
21657;SDS011;10990;48.174;9.782;2022-12-29T06:20:38;3.17;;;1.43;;
21657;SDS011;10990;48.174;9.782;2022-12-29T06:23:06;3.77;;;1.83;;
21657;SDS011;10990;48.174;9.782;2022-12-29T06:25:33;8.47;;;3.67;;
21657;SDS011;10990;48.174;9.782;2022-12-29T06:28:01;6.67;;;3.23;;
21657;SDS011;10990;48.174;9.782;2022-12-29T06:30:28;3.83;;;2.13;;
21657;SDS011;10990;48.174;9.782;2022-12-29T06:32:57;4.40;;;2.10;;
21657;SDS011;10990;48.174;9.782;2022-12-29T06:35:25;2.53;;;1.93;;
21657;SDS011;10990;48.174;9.782;2022-12-29T06:37:52;2.87;;;1.80;;
21657;SDS011;10990;48.174;9.782;2022-12-29T06:40:19;2.73;;;1.83;;
21657;SDS011;10990;48.174;9.782;2022-12-29T06:43:09;3.03;;;1.67;;
21657;SDS011;10990;48.174;9.782;2022-12-29T06:46:05;3.67;;;1.80;;
21657;SDS011;10990;48.174;9.782;2022-12-29T06:48:31;3.77;;;1.70;;
21657;SDS011;10990;48.174;9.782;2022-12-29T06:50:59;3.77;;;2.00;;
21657;SDS011;10990;48.174;9.782;2022-12-29T06:53:26;2.50;;;1.53;;
21657;SDS011;10990;48.174;9.782;2022-12-29T06:55:53;3.23;;;2.00;;
21657;SDS011;10990;48.174;9.782;2022-12-29T06:58:21;3.60;;;1.90;;
21657;SDS011;10990;48.174;9.782;2022-12-29T07:00:48;3.17;;;1.87;;
21657;SDS011;10990;48.174;9.782;2022-12-29T07:03:15;5.03;;;1.80;;
21657;SDS011;10990;48.174;9.782;2022-12-29T07:05:42;5.50;;;2.00;;
21657;SDS011;10990;48.174;9.782;2022-12-29T07:08:10;5.23;;;1.83;;
21657;SDS011;10990;48.174;9.782;2022-12-29T07:10:36;2.83;;;1.70;;
21657;SDS011;10990;48.174;9.782;2022-12-29T07:13:03;4.83;;;2.10;;
21657;SDS011;10990;48.174;9.782;2022-12-29T07:15:32;3.87;;;2.00;;
21657;SDS011;10990;48.174;9.782;2022-12-29T07:17:59;3.90;;;1.90;;
21657;SDS011;10990;48.174;9.782;2022-12-29T07:20:26;2.87;;;1.80;;
21657;SDS011;10990;48.174;9.782;2022-12-29T07:22:53;3.37;;;1.93;;
21657;SDS011;10990;48.174;9.782;2022-12-29T07:25:21;3.37;;;1.87;;
21657;SDS011;10990;48.174;9.782;2022-12-29T07:27:48;3.30;;;1.87;;
21657;SDS011;10990;48.174;9.782;2022-12-29T07:30:15;5.53;;;1.90;;
21657;SDS011;10990;48.174;9.782;2022-12-29T07:32:42;2.67;;;1.80;;
21657;SDS011;10990;48.174;9.782;2022-12-29T07:35:09;4.37;;;2.10;;
21657;SDS011;10990;48.174;9.782;2022-12-29T07:37:36;3.50;;;1.93;;
21657;SDS011;10990;48.174;9.782;2022-12-29T07:40:03;4.83;;;2.23;;
21657;SDS011;10990;48.174;9.782;2022-12-29T07:42:32;3.20;;;1.80;;
21657;SDS011;10990;48.174;9.782;2022-12-29T07:44:58;3.03;;;1.70;;
21657;SDS011;10990;48.174;9.782;2022-12-29T07:47:32;3.13;;;2.00;;
21657;SDS011;10990;48.174;9.782;2022-12-29T07:49:59;2.70;;;1.93;;
21657;SDS011;10990;48.174;9.782;2022-12-29T07:52:25;2.63;;;2.00;;
21657;SDS011;10990;48.174;9.782;2022-12-29T07:54:52;2.83;;;2.00;;
21657;SDS011;10990;48.174;9.782;2022-12-29T07:57:19;3.90;;;2.00;;
21657;SDS011;10990;48.174;9.782;2022-12-29T07:59:47;3.60;;;1.90;;
21657;SDS011;10990;48.174;9.782;2022-12-29T08:02:13;3.27;;;1.80;;
21657;SDS011;10990;48.174;9.782;2022-12-29T08:04:40;4.33;;;1.93;;
21657;SDS011;10990;48.174;9.782;2022-12-29T08:07:07;3.13;;;2.00;;
21657;SDS011;10990;48.174;9.782;2022-12-29T08:09:33;5.90;;;1.90;;
21657;SDS011;10990;48.174;9.782;2022-12-29T08:12:00;3.47;;;1.80;;
21657;SDS011;10990;48.174;9.782;2022-12-29T08:14:27;3.63;;;1.80;;
21657;SDS011;10990;48.174;9.782;2022-12-29T08:16:55;3.80;;;2.20;;
21657;SDS011;10990;48.174;9.782;2022-12-29T08:19:22;4.83;;;1.90;;
21657;SDS011;10990;48.174;9.782;2022-12-29T08:21:48;4.83;;;2.10;;
21657;SDS011;10990;48.174;9.782;2022-12-29T08:24:16;3.27;;;1.80;;
21657;SDS011;10990;48.174;9.782;2022-12-29T08:26:43;5.07;;;1.83;;
21657;SDS011;10990;48.174;9.782;2022-12-29T08:29:10;3.30;;;2.10;;
21657;SDS011;10990;48.174;9.782;2022-12-29T08:31:36;6.00;;;2.00;;
21657;SDS011;10990;48.174;9.782;2022-12-29T08:34:04;3.93;;;1.70;;
21657;SDS011;10990;48.174;9.782;2022-12-29T08:36:31;2.80;;;1.67;;
21657;SDS011;10990;48.174;9.782;2022-12-29T08:38:58;2.50;;;1.63;;
21657;SDS011;10990;48.174;9.782;2022-12-29T08:41:24;4.33;;;2.17;;
21657;SDS011;10990;48.174;9.782;2022-12-29T08:43:51;2.70;;;1.80;;
21657;SDS011;10990;48.174;9.782;2022-12-29T08:46:18;6.00;;;1.70;;
21657;SDS011;10990;48.174;9.782;2022-12-29T08:48:45;4.03;;;1.83;;
21657;SDS011;10990;48.174;9.782;2022-12-29T08:51:13;5.43;;;1.80;;
21657;SDS011;10990;48.174;9.782;2022-12-29T08:53:40;3.10;;;1.80;;
21657;SDS011;10990;48.174;9.782;2022-12-29T08:56:08;7.10;;;2.10;;
21657;SDS011;10990;48.174;9.782;2022-12-29T08:58:45;3.80;;;2.00;;
21657;SDS011;10990;48.174;9.782;2022-12-29T09:01:12;7.17;;;1.70;;
21657;SDS011;10990;48.174;9.782;2022-12-29T09:03:39;4.43;;;1.70;;
21657;SDS011;10990;48.174;9.782;2022-12-29T09:06:06;2.60;;;1.80;;
21657;SDS011;10990;48.174;9.782;2022-12-29T09:08:34;3.93;;;1.93;;
21657;SDS011;10990;48.174;9.782;2022-12-29T09:11:07;4.30;;;2.10;;
21657;SDS011;10990;48.174;9.782;2022-12-29T09:13:35;4.00;;;1.90;;
21657;SDS011;10990;48.174;9.782;2022-12-29T09:16:02;5.17;;;1.70;;
21657;SDS011;10990;48.174;9.782;2022-12-29T09:18:29;3.57;;;1.73;;
21657;SDS011;10990;48.174;9.782;2022-12-29T09:20:56;2.57;;;1.80;;
21657;SDS011;10990;48.174;9.782;2022-12-29T09:23:24;3.97;;;1.87;;
21657;SDS011;10990;48.174;9.782;2022-12-29T09:25:52;2.83;;;1.77;;
21657;SDS011;10990;48.174;9.782;2022-12-29T09:28:19;2.67;;;1.80;;
21657;SDS011;10990;48.174;9.782;2022-12-29T09:30:46;3.33;;;1.60;;
21657;SDS011;10990;48.174;9.782;2022-12-29T09:33:12;2.60;;;1.90;;
21657;SDS011;10990;48.174;9.782;2022-12-29T09:35:41;3.73;;;2.30;;
21657;SDS011;10990;48.174;9.782;2022-12-29T09:38:08;2.03;;;1.50;;
21657;SDS011;10990;48.174;9.782;2022-12-29T09:40:34;5.22;;;2.10;;
21657;SDS011;10990;48.174;9.782;2022-12-29T09:43:10;4.07;;;1.73;;
21657;SDS011;10990;48.174;9.782;2022-12-29T09:45:55;2.00;;;1.50;;
21657;SDS011;10990;48.174;9.782;2022-12-29T09:48:31;3.05;;;1.50;;
21657;SDS011;10990;48.174;9.782;2022-12-29T09:51:02;4.15;;;1.80;;
21657;SDS011;10990;48.174;9.782;2022-12-29T09:53:35;4.47;;;1.65;;
21657;SDS011;10990;48.174;9.782;2022-12-29T09:56:04;3.90;;;1.90;;
21657;SDS011;10990;48.174;9.782;2022-12-29T09:58:40;3.95;;;1.70;;
21657;SDS011;10990;48.174;9.782;2022-12-29T10:01:13;5.50;;;1.55;;
21657;SDS011;10990;48.174;9.782;2022-12-29T10:03:49;2.55;;;1.70;;
21657;SDS011;10990;48.174;9.782;2022-12-29T10:06:17;3.50;;;1.40;;
21657;SDS011;10990;48.174;9.782;2022-12-29T10:08:49;4.40;;;1.48;;
21657;SDS011;10990;48.174;9.782;2022-12-29T10:11:28;1.55;;;1.45;;
21657;SDS011;10990;48.174;9.782;2022-12-29T10:14:15;4.22;;;1.50;;
21657;SDS011;10990;48.174;9.782;2022-12-29T10:16:56;1.88;;;1.35;;
21657;SDS011;10990;48.174;9.782;2022-12-29T10:19:33;2.38;;;1.48;;
21657;SDS011;10990;48.174;9.782;2022-12-29T10:22:12;2.03;;;1.50;;
21657;SDS011;10990;48.174;9.782;2022-12-29T10:24:51;3.03;;;1.45;;
21657;SDS011;10990;48.174;9.782;2022-12-29T10:27:21;3.78;;;1.40;;
21657;SDS011;10990;48.174;9.782;2022-12-29T10:29:51;4.13;;;1.70;;
21657;SDS011;10990;48.174;9.782;2022-12-29T10:32:25;1.98;;;1.50;;
21657;SDS011;10990;48.174;9.782;2022-12-29T10:34:58;5.05;;;1.70;;
21657;SDS011;10990;48.174;9.782;2022-12-29T10:37:31;4.30;;;1.60;;
21657;SDS011;10990;48.174;9.782;2022-12-29T10:40:11;3.10;;;1.70;;
21657;SDS011;10990;48.174;9.782;2022-12-29T10:42:45;3.05;;;1.30;;
21657;SDS011;10990;48.174;9.782;2022-12-29T10:45:16;2.97;;;1.33;;
21657;SDS011;10990;48.174;9.782;2022-12-29T10:47:50;3.80;;;1.67;;
21657;SDS011;10990;48.174;9.782;2022-12-29T10:50:20;2.40;;;1.48;;
21657;SDS011;10990;48.174;9.782;2022-12-29T10:52:48;2.90;;;1.60;;
21657;SDS011;10990;48.174;9.782;2022-12-29T10:55:16;3.50;;;1.33;;
21657;SDS011;10990;48.174;9.782;2022-12-29T10:57:50;3.93;;;1.50;;
21657;SDS011;10990;48.174;9.782;2022-12-29T11:00:19;3.37;;;1.30;;
21657;SDS011;10990;48.174;9.782;2022-12-29T11:02:54;4.37;;;1.43;;
21657;SDS011;10990;48.174;9.782;2022-12-29T11:05:35;2.33;;;1.30;;
21657;SDS011;10990;48.174;9.782;2022-12-29T11:08:08;2.50;;;1.40;;
21657;SDS011;10990;48.174;9.782;2022-12-29T11:10:37;5.37;;;1.67;;
21657;SDS011;10990;48.174;9.782;2022-12-29T11:13:10;5.73;;;1.57;;
21657;SDS011;10990;48.174;9.782;2022-12-29T11:15:42;6.70;;;1.60;;
21657;SDS011;10990;48.174;9.782;2022-12-29T11:18:17;2.67;;;1.40;;
21657;SDS011;10990;48.174;9.782;2022-12-29T11:20:45;4.30;;;1.30;;
21657;SDS011;10990;48.174;9.782;2022-12-29T11:23:28;2.57;;;1.40;;
21657;SDS011;10990;48.174;9.782;2022-12-29T11:26:05;1.93;;;1.50;;
21657;SDS011;10990;48.174;9.782;2022-12-29T11:28:34;3.60;;;1.50;;
21657;SDS011;10990;48.174;9.782;2022-12-29T11:31:03;3.80;;;1.57;;
21657;SDS011;10990;48.174;9.782;2022-12-29T11:33:32;1.80;;;1.40;;
21657;SDS011;10990;48.174;9.782;2022-12-29T11:36:01;4.27;;;1.60;;
21657;SDS011;10990;48.174;9.782;2022-12-29T11:38:33;2.83;;;1.33;;
21657;SDS011;10990;48.174;9.782;2022-12-29T11:41:01;4.60;;;1.47;;
21657;SDS011;10990;48.174;9.782;2022-12-29T11:43:30;3.70;;;1.50;;
21657;SDS011;10990;48.174;9.782;2022-12-29T11:45:59;3.63;;;1.37;;
21657;SDS011;10990;48.174;9.782;2022-12-29T11:48:31;1.90;;;1.40;;
21657;SDS011;10990;48.174;9.782;2022-12-29T11:51:04;3.20;;;1.53;;
21657;SDS011;10990;48.174;9.782;2022-12-29T11:53:33;2.53;;;1.53;;
21657;SDS011;10990;48.174;9.782;2022-12-29T11:56:06;2.07;;;1.37;;
21657;SDS011;10990;48.174;9.782;2022-12-29T11:58:37;2.33;;;1.27;;
21657;SDS011;10990;48.174;9.782;2022-12-29T12:01:05;1.83;;;1.23;;
21657;SDS011;10990;48.174;9.782;2022-12-29T12:03:38;1.77;;;1.30;;
21657;SDS011;10990;48.174;9.782;2022-12-29T12:06:11;3.33;;;1.47;;
21657;SDS011;10990;48.174;9.782;2022-12-29T12:08:41;2.67;;;1.40;;
21657;SDS011;10990;48.174;9.782;2022-12-29T12:11:14;1.90;;;1.40;;
21657;SDS011;10990;48.174;9.782;2022-12-29T12:13:45;4.97;;;1.53;;
21657;SDS011;10990;48.174;9.782;2022-12-29T12:16:21;4.77;;;1.40;;
21657;SDS011;10990;48.174;9.782;2022-12-29T12:18:55;5.23;;;1.70;;
21657;SDS011;10990;48.174;9.782;2022-12-29T12:21:28;2.73;;;1.33;;
21657;SDS011;10990;48.174;9.782;2022-12-29T12:26:55;3.00;;;1.57;;
21657;SDS011;10990;48.174;9.782;2022-12-29T12:29:24;3.27;;;1.30;;
21657;SDS011;10990;48.174;9.782;2022-12-29T12:31:59;2.97;;;1.40;;
21657;SDS011;10990;48.174;9.782;2022-12-29T12:34:33;3.07;;;1.33;;
21657;SDS011;10990;48.174;9.782;2022-12-29T12:37:08;2.07;;;1.30;;
21657;SDS011;10990;48.174;9.782;2022-12-29T12:40:02;3.25;;;1.60;;
21657;SDS011;10990;48.174;9.782;2022-12-29T12:42:55;2.43;;;1.30;;
21657;SDS011;10990;48.174;9.782;2022-12-29T12:45:34;2.80;;;1.50;;
21657;SDS011;10990;48.174;9.782;2022-12-29T12:48:14;2.57;;;1.40;;
21657;SDS011;10990;48.174;9.782;2022-12-29T12:50:59;2.93;;;1.40;;
21657;SDS011;10990;48.174;9.782;2022-12-29T12:53:35;3.63;;;1.20;;
21657;SDS011;10990;48.174;9.782;2022-12-29T12:59:06;2.13;;;1.40;;
21657;SDS011;10990;48.174;9.782;2022-12-29T13:01:46;2.93;;;1.13;;
21657;SDS011;10990;48.174;9.782;2022-12-29T13:04:32;3.37;;;1.43;;
21657;SDS011;10990;48.174;9.782;2022-12-29T13:07:22;2.90;;;1.35;;
21657;SDS011;10990;48.174;9.782;2022-12-29T13:10:12;3.60;;;1.30;;
21657;SDS011;10990;48.174;9.782;2022-12-29T13:12:49;3.53;;;1.60;;
21657;SDS011;10990;48.174;9.782;2022-12-29T13:15:31;2.03;;;1.30;;
21657;SDS011;10990;48.174;9.782;2022-12-29T13:18:12;1.53;;;1.30;;
21657;SDS011;10990;48.174;9.782;2022-12-29T13:20:46;5.80;;;1.40;;
21657;SDS011;10990;48.174;9.782;2022-12-29T13:23:19;3.30;;;1.30;;
21657;SDS011;10990;48.174;9.782;2022-12-29T13:25:54;2.93;;;1.50;;
21657;SDS011;10990;48.174;9.782;2022-12-29T13:28:29;2.70;;;1.43;;
21657;SDS011;10990;48.174;9.782;2022-12-29T13:31:04;2.03;;;1.40;;
21657;SDS011;10990;48.174;9.782;2022-12-29T13:33:40;1.57;;;1.10;;
21657;SDS011;10990;48.174;9.782;2022-12-29T13:36:18;3.80;;;1.23;;
21657;SDS011;10990;48.174;9.782;2022-12-29T13:38:56;2.65;;;1.23;;
21657;SDS011;10990;48.174;9.782;2022-12-29T13:41:32;3.53;;;1.30;;
21657;SDS011;10990;48.174;9.782;2022-12-29T13:44:02;3.13;;;1.30;;
21657;SDS011;10990;48.174;9.782;2022-12-29T13:46:31;3.57;;;1.30;;
21657;SDS011;10990;48.174;9.782;2022-12-29T13:49:01;2.67;;;1.33;;
21657;SDS011;10990;48.174;9.782;2022-12-29T13:51:33;2.27;;;1.47;;
21657;SDS011;10990;48.174;9.782;2022-12-29T13:54:05;2.63;;;1.40;;
21657;SDS011;10990;48.174;9.782;2022-12-29T13:56:42;4.00;;;1.43;;
21657;SDS011;10990;48.174;9.782;2022-12-29T13:59:17;3.17;;;1.37;;
21657;SDS011;10990;48.174;9.782;2022-12-29T14:01:50;3.60;;;1.53;;
21657;SDS011;10990;48.174;9.782;2022-12-29T14:04:23;4.33;;;1.70;;
21657;SDS011;10990;48.174;9.782;2022-12-29T14:06:59;3.77;;;1.50;;
21657;SDS011;10990;48.174;9.782;2022-12-29T14:09:37;2.50;;;1.20;;
21657;SDS011;10990;48.174;9.782;2022-12-29T14:12:18;2.17;;;1.50;;
21657;SDS011;10990;48.174;9.782;2022-12-29T14:14:48;3.57;;;1.40;;
21657;SDS011;10990;48.174;9.782;2022-12-29T14:17:16;1.87;;;1.30;;
21657;SDS011;10990;48.174;9.782;2022-12-29T14:19:46;2.17;;;1.30;;
21657;SDS011;10990;48.174;9.782;2022-12-29T14:22:22;2.57;;;1.07;;
21657;SDS011;10990;48.174;9.782;2022-12-29T14:24:52;4.00;;;1.30;;
21657;SDS011;10990;48.174;9.782;2022-12-29T14:27:42;3.10;;;1.30;;
21657;SDS011;10990;48.174;9.782;2022-12-29T14:33:14;2.57;;;1.30;;
21657;SDS011;10990;48.174;9.782;2022-12-29T14:35:42;3.17;;;1.80;;
21657;SDS011;10990;48.174;9.782;2022-12-29T14:38:15;3.20;;;1.67;;
21657;SDS011;10990;48.174;9.782;2022-12-29T14:40:46;2.83;;;1.40;;
21657;SDS011;10990;48.174;9.782;2022-12-29T14:43:16;3.37;;;1.20;;
21657;SDS011;10990;48.174;9.782;2022-12-29T14:45:52;2.03;;;1.10;;
21657;SDS011;10990;48.174;9.782;2022-12-29T14:48:28;1.73;;;1.27;;
21657;SDS011;10990;48.174;9.782;2022-12-29T14:50:59;3.13;;;1.37;;
21657;SDS011;10990;48.174;9.782;2022-12-29T14:53:43;3.13;;;1.20;;
21657;SDS011;10990;48.174;9.782;2022-12-29T14:56:13;2.13;;;1.27;;
21657;SDS011;10990;48.174;9.782;2022-12-29T14:58:43;1.60;;;1.30;;
21657;SDS011;10990;48.174;9.782;2022-12-29T15:01:18;1.97;;;1.13;;
21657;SDS011;10990;48.174;9.782;2022-12-29T15:03:49;2.93;;;1.27;;
21657;SDS011;10990;48.174;9.782;2022-12-29T15:06:19;2.30;;;1.30;;
21657;SDS011;10990;48.174;9.782;2022-12-29T15:08:56;2.33;;;1.10;;
21657;SDS011;10990;48.174;9.782;2022-12-29T15:11:41;4.00;;;1.40;;
21657;SDS011;10990;48.174;9.782;2022-12-29T15:14:28;3.10;;;1.40;;
21657;SDS011;10990;48.174;9.782;2022-12-29T15:17:00;3.93;;;1.60;;
21657;SDS011;10990;48.174;9.782;2022-12-29T15:19:28;2.87;;;1.20;;
21657;SDS011;10990;48.174;9.782;2022-12-29T15:21:55;1.57;;;1.40;;
21657;SDS011;10990;48.174;9.782;2022-12-29T15:24:23;5.13;;;2.40;;
21657;SDS011;10990;48.174;9.782;2022-12-29T15:26:52;45.83;;;21.50;;
21657;SDS011;10990;48.174;9.782;2022-12-29T15:29:30;30.63;;;14.00;;